createdAt,value
2022-08-09T00:00:04.652Z,1008.18
2022-08-09T00:05:00.933Z,1008.04
2022-08-09T00:10:00.110Z,1008.1
2022-08-09T00:15:00.510Z,1008.12
2022-08-09T00:20:00.125Z,1008.13
2022-08-09T00:25:00.107Z,1008.11
2022-08-09T00:30:10.496Z,1008.13
2022-08-09T00:35:00.104Z,1008.12
2022-08-09T00:40:00.125Z,1008.16
2022-08-09T00:45:00.096Z,1008.22
2022-08-09T00:50:00.099Z,1008.13
2022-08-09T00:55:00.841Z,1008.22
2022-08-09T01:00:00.812Z,1008.13
2022-08-09T01:05:00.090Z,1008.08
2022-08-09T01:10:00.097Z,1008.07
2022-08-09T01:15:00.989Z,1008.09
2022-08-09T01:20:02.249Z,1008.05
2022-08-09T01:25:00.771Z,1008.06
2022-08-09T01:30:00.107Z,1008.14
2022-08-09T01:35:00.103Z,1008.05
2022-08-09T01:40:00.089Z,1008.03
2022-08-09T01:45:00.100Z,1008.07
2022-08-09T01:50:00.100Z,1008.12
2022-08-09T01:55:00.110Z,1008.06
2022-08-09T02:00:08.792Z,1008.05
2022-08-09T02:05:04.154Z,1008.14
2022-08-09T02:10:01.169Z,1008.18
2022-08-09T02:15:00.102Z,1008.27
2022-08-09T02:20:01.278Z,1008.33
2022-08-09T02:25:00.122Z,1008.44
2022-08-09T02:30:01.647Z,1008.38
2022-08-09T02:35:00.097Z,1008.44
2022-08-09T02:40:01.411Z,1008.3
2022-08-09T02:45:00.100Z,1008.35
2022-08-09T02:50:01.429Z,1008.35
2022-08-09T02:55:00.091Z,1008.31
2022-08-09T03:00:11.599Z,1008.33
2022-08-09T03:05:00.116Z,1008.49
2022-08-09T03:10:00.569Z,1008.46
2022-08-09T03:15:00.105Z,1008.48
2022-08-09T03:20:03.586Z,1008.46
2022-08-09T03:25:03.311Z,1008.45
2022-08-09T03:30:01.188Z,1008.54
2022-08-09T03:35:00.095Z,1008.58
2022-08-09T03:40:00.180Z,1008.6
2022-08-09T03:45:00.092Z,1008.61
2022-08-09T03:50:00.082Z,1008.64
2022-08-09T03:55:00.110Z,1008.8
2022-08-09T04:00:00.662Z,1008.73
2022-08-09T04:05:00.475Z,1008.7
2022-08-09T04:10:00.124Z,1008.8
2022-08-09T04:15:01.242Z,1008.84
2022-08-09T04:20:02.489Z,1008.86
2022-08-09T04:25:00.100Z,1008.79
2022-08-09T04:30:00.107Z,1008.84
2022-08-09T04:35:01.171Z,1008.81
2022-08-09T04:40:00.141Z,1008.85
2022-08-09T04:45:00.096Z,1008.97
2022-08-09T04:50:00.115Z,1009.1
2022-08-09T04:55:00.108Z,1009.03
2022-08-09T05:00:00.138Z,1009.28
2022-08-09T05:05:04.241Z,1009.28
2022-08-09T05:10:01.201Z,1009.3
2022-08-09T05:15:00.098Z,1009.26
2022-08-09T05:20:00.097Z,1009.29
2022-08-09T05:25:00.911Z,1009.35
2022-08-09T05:30:00.126Z,1009.45
2022-08-09T05:35:00.096Z,1009.48
2022-08-09T05:40:00.166Z,1009.54
2022-08-09T05:45:00.099Z,1009.67
2022-08-09T05:50:24.969Z,1009.58
2022-08-09T05:55:02.940Z,1009.62
2022-08-09T06:00:00.175Z,1009.72
2022-08-09T06:05:00.121Z,1009.66
2022-08-09T06:10:02.581Z,1009.63
2022-08-09T06:15:01.775Z,1009.66
2022-08-09T06:20:00.107Z,1009.73
2022-08-09T06:25:00.117Z,1009.73
2022-08-09T06:30:04.325Z,1009.78
2022-08-09T06:35:00.104Z,1009.91
2022-08-09T06:40:01.850Z,1009.84
2022-08-09T06:45:09.271Z,1009.94
2022-08-09T06:50:12.420Z,1009.92
2022-08-09T06:55:00.109Z,1009.87
2022-08-09T07:00:48.293Z,1009.91
2022-08-09T07:05:00.172Z,1009.98
2022-08-09T07:10:12.729Z,1009.88
2022-08-09T07:15:00.087Z,1009.96
2022-08-09T07:20:00.101Z,1009.99
2022-08-09T07:25:00.114Z,1010.09
2022-08-09T07:30:00.225Z,1009.98
2022-08-09T07:35:00.122Z,1010.06
2022-08-09T07:40:00.157Z,1010.06
2022-08-09T07:45:01.775Z,1010
2022-08-09T07:50:05.676Z,1010.04
2022-08-09T07:55:00.123Z,1009.98
2022-08-09T08:00:02.826Z,1009.99
2022-08-09T08:05:00.092Z,1009.97
2022-08-09T08:10:07.761Z,1009.92
2022-08-09T08:15:00.091Z,1010.02
2022-08-09T08:20:00.129Z,1010
2022-08-09T08:25:00.098Z,1010
2022-08-09T08:30:00.106Z,1010.1
2022-08-09T08:35:00.103Z,1010.01
2022-08-09T08:40:00.242Z,1010.03
2022-08-09T08:45:00.089Z,1010.04
2022-08-09T08:50:02.617Z,1010.03
2022-08-09T08:55:01.198Z,1010.01
2022-08-09T09:00:00.142Z,1009.98
2022-08-09T09:05:02.916Z,1010.04
2022-08-09T09:10:02.570Z,1010.05
2022-08-09T09:15:00.108Z,1010.04
2022-08-09T09:20:00.114Z,1010.02
2022-08-09T09:26:00.662Z,1010.05
2022-08-09T09:30:09.421Z,1009.99
2022-08-09T09:35:00.090Z,1010.02
2022-08-09T09:40:00.824Z,1010.01
2022-08-09T09:45:00.089Z,1010.02
2022-08-09T09:50:13.977Z,1009.98
2022-08-09T09:55:00.109Z,1009.92
2022-08-09T10:00:00.142Z,1009.86
2022-08-09T10:05:00.097Z,1009.91
2022-08-09T10:10:00.187Z,1009.86
2022-08-09T10:15:00.079Z,1009.84
2022-08-09T10:20:00.366Z,1009.81
2022-08-09T10:25:00.122Z,1009.85
2022-08-09T10:30:29.922Z,1009.88
2022-08-09T10:35:00.106Z,1009.79
2022-08-09T10:40:00.156Z,1009.69
2022-08-09T10:45:00.085Z,1009.77
2022-08-09T10:50:00.112Z,1009.69
2022-08-09T10:55:00.112Z,1009.57
2022-08-09T11:00:01.512Z,1009.69
2022-08-09T11:05:00.171Z,1009.59
2022-08-09T11:10:00.116Z,1009.59
2022-08-09T11:15:00.113Z,1009.63
2022-08-09T11:20:08.305Z,1009.54
2022-08-09T11:25:00.109Z,1009.63
2022-08-09T11:30:05.485Z,1009.6
2022-08-09T11:35:00.087Z,1009.55
2022-08-09T11:40:00.246Z,1009.55
2022-08-09T11:45:00.085Z,1009.58
2022-08-09T11:50:54.697Z,1009.53
2022-08-09T11:55:00.100Z,1009.44
2022-08-09T12:00:00.129Z,1009.45
2022-08-09T12:05:00.221Z,1009.46
2022-08-09T12:10:00.103Z,1009.4
2022-08-09T12:15:04.642Z,1009.37
2022-08-09T12:20:00.110Z,1009.3
2022-08-09T12:25:00.111Z,1009.31
2022-08-09T12:30:04.489Z,1009.36
2022-08-09T12:35:00.093Z,1009.3
2022-08-09T12:40:00.100Z,1009.32
2022-08-09T12:45:00.360Z,1009.28
2022-08-09T12:50:00.172Z,1009.33
2022-08-09T12:55:03.371Z,1009.17
2022-08-09T13:00:03.594Z,1009.17
2022-08-09T13:05:00.087Z,1009.18
2022-08-09T13:10:00.267Z,1009.18
2022-08-09T13:15:00.101Z,1009.22
2022-08-09T13:20:08.032Z,1009.15
2022-08-09T13:25:03.465Z,1009.08
2022-08-09T13:30:03.380Z,1009.04
2022-08-09T13:35:00.130Z,1008.99
2022-08-09T13:41:21.949Z,1009.05
2022-08-09T13:45:00.091Z,1009.03
2022-08-09T13:50:01.111Z,1009.08
2022-08-09T13:55:04.424Z,1009.06
2022-08-09T14:00:00.117Z,1009.08
2022-08-09T14:05:00.612Z,1009.03
2022-08-09T14:10:00.111Z,1009.06
2022-08-09T14:15:00.106Z,1009.01
2022-08-09T14:20:00.090Z,1009.11
2022-08-09T14:25:00.102Z,1009.03
2022-08-09T14:30:15.272Z,1008.97
2022-08-09T14:35:00.127Z,1008.94
2022-08-09T14:40:00.253Z,1008.85
2022-08-09T14:45:00.931Z,1008.86
2022-08-09T14:50:01.776Z,1008.81
2022-08-09T14:55:00.108Z,1008.8
2022-08-09T15:00:00.109Z,1008.89
2022-08-09T15:05:00.092Z,1008.86
2022-08-09T15:10:04.390Z,1008.85
2022-08-09T15:15:00.087Z,1008.86
2022-08-09T15:20:02.585Z,1008.93
2022-08-09T15:25:00.105Z,1008.74
2022-08-09T15:30:48.990Z,1008.8
2022-08-09T15:35:00.418Z,1008.8
2022-08-09T15:40:00.152Z,1008.79
2022-08-09T15:45:00.125Z,1008.79
2022-08-09T15:50:00.938Z,1008.8
2022-08-09T15:55:00.116Z,1008.74
2022-08-09T16:00:00.211Z,1008.78
2022-08-09T16:05:02.614Z,1008.86
2022-08-09T16:10:04.062Z,1008.79
2022-08-09T16:15:00.096Z,1008.75
2022-08-09T16:20:04.295Z,1008.72
2022-08-09T16:25:01.405Z,1008.76
2022-08-09T16:30:01.234Z,1008.71
2022-08-09T16:35:00.085Z,1008.6
2022-08-09T16:40:04.520Z,1008.61
2022-08-09T16:45:00.088Z,1008.52
2022-08-09T16:50:28.503Z,1008.58
2022-08-09T16:55:00.123Z,1008.63
2022-08-09T17:00:00.150Z,1008.62
2022-08-09T17:05:00.139Z,1008.65
2022-08-09T17:10:02.087Z,1008.63
2022-08-09T17:15:00.089Z,1008.72
2022-08-09T17:20:28.072Z,1008.67
2022-08-09T17:25:02.882Z,1008.65
2022-08-09T17:30:00.108Z,1008.68
2022-08-09T17:35:01.829Z,1008.66
2022-08-09T17:40:00.177Z,1008.66
2022-08-09T17:45:00.089Z,1008.82
2022-08-09T17:50:07.579Z,1008.85
2022-08-09T17:55:00.080Z,1008.84
2022-08-09T18:00:05.304Z,1008.73
2022-08-09T18:05:00.093Z,1008.85
2022-08-09T18:10:04.843Z,1008.79
2022-08-09T18:15:00.075Z,1008.81
2022-08-09T18:20:53.383Z,1008.86
2022-08-09T18:25:00.090Z,1008.85
2022-08-09T18:30:37.365Z,1008.91
2022-08-09T18:35:00.097Z,1008.91
2022-08-09T18:40:00.144Z,1008.96
2022-08-09T18:45:00.925Z,1008.92
2022-08-09T18:50:03.106Z,1009.06
2022-08-09T18:55:00.087Z,1009.17
2022-08-09T19:00:03.795Z,1009.16
2022-08-09T19:05:04.692Z,1009.2
2022-08-09T19:10:13.624Z,1009.25
2022-08-09T19:15:00.092Z,1009.32
2022-08-09T19:20:00.966Z,1009.35
2022-08-09T19:25:07.369Z,1009.36
2022-08-09T19:30:21.607Z,1009.26
2022-08-09T19:35:00.118Z,1009.37
2022-08-09T19:40:04.582Z,1009.29
2022-08-09T19:45:00.094Z,1009.42
2022-08-09T19:50:05.027Z,1009.46
2022-08-09T19:55:00.093Z,1009.43
2022-08-09T20:00:06.302Z,1009.51
2022-08-09T20:05:00.521Z,1009.55
2022-08-09T20:10:00.129Z,1009.62
2022-08-09T20:15:00.088Z,1009.68
2022-08-09T20:20:00.109Z,1009.65
2022-08-09T20:25:00.109Z,1009.64
2022-08-09T20:30:00.128Z,1009.66
2022-08-09T20:35:00.105Z,1009.63
2022-08-09T20:40:14.192Z,1009.65
2022-08-09T20:45:28.478Z,1009.61
2022-08-09T20:50:00.147Z,1009.54
2022-08-09T20:55:00.077Z,1009.52
2022-08-09T21:00:19.770Z,1009.53
2022-08-09T21:05:55.374Z,1009.56
2022-08-09T21:10:00.112Z,1009.67
2022-08-09T21:15:00.118Z,1009.68
2022-08-09T21:20:05.578Z,1009.66
2022-08-09T21:25:00.103Z,1009.62
2022-08-09T21:30:00.113Z,1009.73
2022-08-09T21:35:00.138Z,1009.76
2022-08-09T21:40:00.239Z,1009.73
2022-08-09T21:45:00.085Z,1009.77
2022-08-09T21:50:00.151Z,1009.77
2022-08-09T21:55:04.113Z,1009.71
2022-08-09T22:00:00.162Z,1009.78
2022-08-09T22:05:04.269Z,1009.81
2022-08-09T22:10:00.136Z,1009.83
2022-08-09T22:15:00.103Z,1009.75
2022-08-09T22:20:00.719Z,1009.75
2022-08-09T22:26:04.914Z,1009.72
2022-08-09T22:30:00.113Z,1009.82
2022-08-09T22:35:02.751Z,1009.86
2022-08-09T22:40:00.314Z,1009.89
2022-08-09T22:48:06.508Z,1009.95
2022-08-09T22:50:00.180Z,1009.93
2022-08-09T22:55:00.097Z,1009.95
2022-08-09T23:00:00.173Z,1009.84
2022-08-09T23:05:00.121Z,1009.86
2022-08-09T23:10:00.111Z,1009.88
2022-08-09T23:15:00.105Z,1009.96
2022-08-09T23:20:01.319Z,1009.91
2022-08-09T23:25:00.096Z,1009.89
2022-08-09T23:30:00.142Z,1009.84
2022-08-09T23:35:00.103Z,1009.84
2022-08-09T23:40:00.081Z,1009.78
2022-08-09T23:45:00.095Z,1009.81
2022-08-09T23:50:00.098Z,1009.81
2022-08-09T23:55:00.086Z,1009.78
